Time;durP1;ratioP1;P1;durP2;ratioP2;P2;SDS_P1;SDS_P2;PMS_P1;PMS_P2;Temp;Humidity;BMP_temperature;BMP_pressure;BME280_temperature;BME280_humidity;BME280_pressure;Samples;Min_cycle;Max_cycle;Signal;HPM_P1;HPM_P2
2023/05/14 00:01:19;;;;;;;4.65;3.45;;;21.40;1.00;;;;;;4827410;29;20042;-43
2023/05/14 00:03:45;;;;;;;4.72;3.58;;;21.40;1.00;;;;;;4832618;29;20042;-42
2023/05/14 00:06:13;;;;;;;5.13;3.20;;;21.40;1.00;;;;;;4840333;29;20499;-42
2023/05/14 00:08:40;;;;;;;4.95;3.30;;;21.40;1.00;;;;;;4825318;29;20053;-43
2023/05/14 00:11:07;;;;;;;4.25;3.40;;;21.40;1.00;;;;;;4840413;29;20049;-45
2023/05/14 00:13:35;;;;;;;5.50;3.10;;;21.30;1.00;;;;;;4843827;29;20119;-44
2023/05/14 00:16:02;;;;;;;4.43;3.10;;;21.30;1.00;;;;;;4836181;29;20129;-44
2023/05/14 00:18:29;;;;;;;5.28;3.15;;;21.30;1.00;;;;;;4830231;29;20054;-42
2023/05/14 00:20:56;;;;;;;6.15;2.90;;;21.30;1.00;;;;;;4842634;29;20050;-47
2023/05/14 00:23:23;;;;;;;4.22;2.92;;;21.30;1.00;;;;;;4835998;29;20125;-44
2023/05/14 00:25:50;;;;;;;4.20;3.00;;;21.30;1.00;;;;;;4828010;29;20050;-42
2023/05/14 00:28:17;;;;;;;4.75;3.08;;;21.30;1.00;;;;;;4836221;29;20069;-43
2023/05/14 00:30:43;;;;;;;3.72;3.00;;;21.30;1.00;;;;;;4835979;29;20042;-43
2023/05/14 00:33:10;;;;;;;2.78;2.40;;;21.30;1.00;;;;;;4842318;29;20056;-43
2023/05/14 00:35:37;;;;;;;4.70;3.30;;;21.20;1.00;;;;;;4836084;29;20053;-42
2023/05/14 00:38:05;;;;;;;5.53;3.28;;;21.30;1.00;;;;;;4843384;29;20042;-45
2023/05/14 00:40:31;;;;;;;6.72;2.95;;;21.20;1.00;;;;;;4843666;29;20460;-42
2023/05/14 00:42:59;;;;;;;3.80;2.53;;;21.30;1.00;;;;;;4843234;29;20517;-43
2023/05/14 00:45:26;;;;;;;5.78;2.80;;;21.20;1.00;;;;;;4836531;29;20075;-44
2023/05/14 00:47:53;;;;;;;3.63;3.03;;;21.20;1.00;;;;;;4832636;29;20053;-42
2023/05/14 00:50:21;;;;;;;4.20;3.10;;;21.20;1.00;;;;;;4834489;29;20049;-43
2023/05/14 00:52:48;;;;;;;3.40;3.08;;;21.20;1.00;;;;;;4843046;29;20060;-43
2023/05/14 00:55:15;;;;;;;3.28;2.97;;;21.20;1.00;;;;;;4843191;29;20042;-43
2023/05/14 00:57:43;;;;;;;5.05;3.30;;;21.20;1.00;;;;;;4833966;29;20085;-42
2023/05/14 01:00:10;;;;;;;4.20;3.15;;;21.20;1.00;;;;;;4843251;29;20384;-42
2023/05/14 01:02:37;;;;;;;3.50;3.17;;;21.20;1.00;;;;;;4827408;29;20043;-43
2023/05/14 01:05:05;;;;;;;4.07;2.95;;;21.20;1.00;;;;;;4833571;29;20065;-43
2023/05/14 01:07:50;;;;;;;6.07;3.28;;;21.10;1.00;;;;;;4827936;29;20055;-43
2023/05/14 01:10:46;;;;;;;4.28;2.78;;;21.10;1.00;;;;;;4835409;29;20065;-43
2023/05/14 01:13:23;;;;;;;6.65;3.05;;;21.10;1.00;;;;;;4843090;29;20115;-46
2023/05/14 01:15:51;;;;;;;3.53;3.10;;;21.10;1.00;;;;;;4833702;29;20054;-43
2023/05/14 01:18:18;;;;;;;3.90;3.25;;;21.10;1.00;;;;;;4834418;29;20041;-42
2023/05/14 01:20:48;;;;;;;3.20;2.92;;;21.10;1.00;;;;;;4842620;29;20050;-43
2023/05/14 01:23:15;;;;;;;5.43;3.13;;;21.10;1.00;;;;;;4827077;29;20046;-43
2023/05/14 01:25:42;;;;;;;4.72;3.15;;;21.00;1.00;;;;;;4833932;29;20046;-43
2023/05/14 01:28:19;;;;;;;3.47;3.17;;;21.10;1.00;;;;;;4826493;29;20046;-42
2023/05/14 01:30:59;;;;;;;4.00;3.60;;;21.00;1.00;;;;;;4833675;29;20142;-42
2023/05/14 01:33:28;;;;;;;4.80;3.05;;;21.00;1.00;;;;;;4828475;29;20084;-43
2023/05/14 01:35:55;;;;;;;4.40;3.20;;;21.00;1.00;;;;;;4823839;29;20577;-44
2023/05/14 01:38:23;;;;;;;3.42;3.13;;;21.00;1.00;;;;;;4829122;29;20421;-43
2023/05/14 01:40:50;;;;;;;3.95;2.90;;;21.00;1.00;;;;;;4841027;29;20056;-45
2023/05/14 01:43:18;;;;;;;4.65;3.30;;;21.00;1.00;;;;;;4840943;29;20092;-42
2023/05/14 01:45:45;;;;;;;5.43;3.28;;;21.00;1.00;;;;;;4833327;29;20046;-42
2023/05/14 01:48:12;;;;;;;4.03;2.80;;;20.90;1.00;;;;;;4839057;29;20041;-43
2023/05/14 01:50:39;;;;;;;4.30;3.38;;;20.90;1.00;;;;;;4822905;29;20050;-43
2023/05/14 01:53:06;;;;;;;3.13;2.65;;;20.90;1.00;;;;;;4838853;29;20531;-45
2023/05/14 01:55:32;;;;;;;3.05;2.75;;;20.90;1.00;;;;;;4823926;29;20099;-43
2023/05/14 01:57:59;;;;;;;7.43;3.67;;;20.90;1.00;;;;;;4829870;29;20141;-42
2023/05/14 02:00:26;;;;;;;4.07;3.38;;;20.90;1.00;;;;;;4828078;29;20052;-43
2023/05/14 02:02:53;;;;;;;4.15;2.85;;;20.90;1.00;;;;;;4826891;29;20054;-44
2023/05/14 02:05:22;;;;;;;6.13;3.58;;;20.90;1.00;;;;;;4842017;29;20046;-42
2023/05/14 02:07:49;;;;;;;4.25;3.35;;;20.90;1.00;;;;;;4841272;29;20038;-42
2023/05/14 02:10:16;;;;;;;3.45;3.05;;;20.90;1.00;;;;;;4826177;29;20091;-43
2023/05/14 02:12:47;;;;;;;3.63;3.10;;;20.90;1.00;;;;;;4841814;29;20075;-43
2023/05/14 02:15:15;;;;;;;5.75;4.00;;;20.80;1.00;;;;;;4833057;29;20455;-43
2023/05/14 02:17:42;;;;;;;3.47;3.17;;;20.80;1.00;;;;;;4827243;29;20053;-43
2023/05/14 02:20:10;;;;;;;4.53;3.05;;;20.80;1.00;;;;;;4826375;29;20068;-44
2023/05/14 02:22:37;;;;;;;4.47;3.42;;;20.80;1.00;;;;;;4834127;29;20470;-43
2023/05/14 02:25:04;;;;;;;3.65;2.55;;;20.80;1.00;;;;;;4831606;29;20038;-42
2023/05/14 02:27:31;;;;;;;3.20;2.90;;;20.80;1.00;;;;;;4828561;29;20047;-43
2023/05/14 02:29:59;;;;;;;3.17;2.75;;;20.80;1.00;;;;;;4830922;29;20046;-43
2023/05/14 02:32:27;;;;;;;4.57;2.80;;;20.80;1.00;;;;;;4828441;29;20038;-42
2023/05/14 02:34:54;;;;;;;4.63;3.15;;;20.80;1.00;;;;;;4839886;29;20056;-43
2023/05/14 02:37:21;;;;;;;3.38;2.92;;;20.70;1.00;;;;;;4829577;29;20148;-42
2023/05/14 02:39:48;;;;;;;4.00;2.45;;;20.70;1.00;;;;;;4838479;29;20069;-43
2023/05/14 02:42:15;;;;;;;2.78;2.35;;;20.70;1.00;;;;;;4827300;29;20047;-42
2023/05/14 02:44:41;;;;;;;3.53;2.35;;;20.70;1.00;;;;;;4823139;29;20079;-42
2023/05/14 02:47:09;;;;;;;4.25;2.50;;;20.70;1.00;;;;;;4836843;29;20047;-42
2023/05/14 02:49:36;;;;;;;5.53;2.80;;;20.70;1.00;;;;;;4828045;29;20054;-43
2023/05/14 02:52:03;;;;;;;4.00;3.03;;;20.70;1.00;;;;;;4824786;29;20482;-42
2023/05/14 02:54:30;;;;;;;3.65;3.10;;;20.70;1.00;;;;;;4832372;29;20060;-43
2023/05/14 02:56:57;;;;;;;3.90;2.90;;;20.70;1.00;;;;;;4832117;29;20073;-43
2023/05/14 02:59:23;;;;;;;3.63;2.35;;;20.70;1.00;;;;;;4832450;29;20097;-43
2023/05/14 03:01:51;;;;;;;3.22;2.70;;;20.70;1.00;;;;;;4832198;29;20050;-43
2023/05/14 03:04:19;;;;;;;3.65;2.88;;;20.60;1.00;;;;;;4828463;29;20050;-43
2023/05/14 03:06:46;;;;;;;2.70;2.47;;;20.60;1.00;;;;;;4829107;29;20046;-42
2023/05/14 03:09:13;;;;;;;4.85;3.85;;;20.60;1.00;;;;;;4831866;29;20042;-43
2023/05/14 03:11:40;;;;;;;3.25;2.53;;;20.60;1.00;;;;;;4834886;29;20578;-43
2023/05/14 03:14:06;;;;;;;2.95;2.75;;;20.60;1.00;;;;;;4839789;29;20142;-43
2023/05/14 03:16:33;;;;;;;6.10;3.35;;;20.60;1.00;;;;;;4840649;29;20046;-43
2023/05/14 03:19:00;;;;;;;2.63;2.28;;;20.60;1.00;;;;;;4840830;29;20050;-43
2023/05/14 03:21:27;;;;;;;3.20;2.50;;;20.60;1.00;;;;;;4833466;29;20579;-43
2023/05/14 03:23:54;;;;;;;2.65;2.00;;;20.60;1.00;;;;;;4840101;29;20415;-42
2023/05/14 03:26:20;;;;;;;5.68;2.78;;;20.50;1.00;;;;;;4828880;29;20042;-43
2023/05/14 03:28:50;;;;;;;3.65;2.70;;;20.60;1.00;;;;;;4829012;29;20050;-44
2023/05/14 03:31:17;;;;;;;3.30;2.83;;;20.50;1.00;;;;;;4830206;29;20480;-42
2023/05/14 03:33:44;;;;;;;4.85;2.30;;;20.50;1.00;;;;;;4829963;29;20050;-43
2023/05/14 03:36:11;;;;;;;3.97;3.25;;;20.50;1.00;;;;;;4829790;29;20054;-42
2023/05/14 03:38:38;;;;;;;4.32;3.08;;;20.50;1.00;;;;;;4828655;29;20060;-42
2023/05/14 03:41:05;;;;;;;3.00;2.30;;;20.50;1.00;;;;;;4833380;29;20488;-42
2023/05/14 03:43:32;;;;;;;2.38;2.17;;;20.50;1.00;;;;;;4817051;29;20042;-43
2023/05/14 03:45:59;;;;;;;4.15;3.05;;;20.50;1.00;;;;;;4836793;29;20049;-42
2023/05/14 03:48:26;;;;;;;3.90;2.60;;;20.50;1.00;;;;;;4842916;29;20093;-43
2023/05/14 03:50:53;;;;;;;5.22;2.47;;;20.50;1.00;;;;;;4835114;29;20052;-43
2023/05/14 03:53:19;;;;;;;3.53;3.08;;;20.40;1.00;;;;;;4828131;29;20677;-43
2023/05/14 03:55:46;;;;;;;2.78;2.55;;;20.50;1.00;;;;;;4842696;29;20057;-43
2023/05/14 03:58:13;;;;;;;2.78;2.55;;;20.40;1.00;;;;;;4841529;29;20114;-43
2023/05/14 04:00:43;;;;;;;5.07;2.30;;;20.40;1.00;;;;;;4830209;29;20639;-42
2023/05/14 04:03:10;;;;;;;3.97;3.13;;;20.40;1.00;;;;;;4831866;29;20054;-44
2023/05/14 04:05:37;;;;;;;5.28;2.42;;;20.40;1.00;;;;;;4824283;29;20086;-44
2023/05/14 04:08:05;;;;;;;3.35;2.42;;;20.40;1.00;;;;;;4831634;29;20530;-43
2023/05/14 04:10:31;;;;;;;5.55;3.00;;;20.40;1.00;;;;;;4825779;29;20046;-43
2023/05/14 04:12:59;;;;;;;2.55;2.13;;;20.40;1.00;;;;;;4832409;29;20046;-42
2023/05/14 04:15:30;;;;;;;5.13;2.53;;;20.40;1.00;;;;;;4837882;29;20042;-42
2023/05/14 04:17:57;;;;;;;4.90;2.67;;;20.40;1.00;;;;;;4839185;29;20050;-42
2023/05/14 04:20:24;;;;;;;5.10;2.85;;;20.40;1.00;;;;;;4835771;29;20048;-43
2023/05/14 04:22:52;;;;;;;5.68;2.30;;;20.40;1.00;;;;;;4836214;29;20125;-43
2023/05/14 04:25:19;;;;;;;3.53;2.50;;;20.30;1.00;;;;;;4828521;29;20494;-44
2023/05/14 04:27:46;;;;;;;4.38;3.28;;;20.40;1.00;;;;;;4843626;29;20080;-43
2023/05/14 04:30:13;;;;;;;5.03;2.38;;;20.40;1.00;;;;;;4833630;29;20440;-42
2023/05/14 04:32:40;;;;;;;3.20;2.35;;;20.30;1.00;;;;;;4830962;29;20066;-43
2023/05/14 04:35:08;;;;;;;3.05;2.75;;;20.30;1.00;;;;;;4843243;29;20069;-42
2023/05/14 04:37:36;;;;;;;4.53;2.97;;;20.30;1.00;;;;;;4830636;29;20050;-42
2023/05/14 04:40:04;;;;;;;4.18;2.45;;;20.30;1.00;;;;;;4833495;29;20507;-45
2023/05/14 04:42:30;;;;;;;3.15;2.28;;;20.30;1.00;;;;;;4836164;29;20103;-44
2023/05/14 04:44:57;;;;;;;4.78;2.90;;;20.30;1.00;;;;;;4839980;29;20046;-44
2023/05/14 04:47:25;;;;;;;5.50;3.78;;;20.30;1.00;;;;;;4824861;29;20038;-46
2023/05/14 04:49:52;;;;;;;3.65;1.85;;;20.30;1.00;;;;;;4839798;29;20141;-45
2023/05/14 04:52:19;;;;;;;2.85;2.30;;;20.30;1.00;;;;;;4840262;29;20065;-45
2023/05/14 04:54:45;;;;;;;4.22;2.17;;;20.30;1.00;;;;;;4824801;29;20054;-45
2023/05/14 04:57:12;;;;;;;2.38;2.10;;;20.30;1.00;;;;;;4841448;29;20129;-44
2023/05/14 04:59:39;;;;;;;4.85;2.28;;;20.30;1.00;;;;;;4830095;29;20419;-45
2023/05/14 05:02:06;;;;;;;6.07;2.33;;;20.30;1.00;;;;;;4824657;29;20066;-44
2023/05/14 05:04:33;;;;;;;3.90;2.33;;;20.30;1.00;;;;;;4824630;29;20050;-44
2023/05/14 05:06:59;;;;;;;4.63;2.67;;;20.30;1.00;;;;;;4832248;29;20491;-45
2023/05/14 05:09:26;;;;;;;3.65;2.70;;;20.20;1.00;;;;;;4837069;29;20050;-45
2023/05/14 05:11:53;;;;;;;4.10;2.67;;;20.30;1.00;;;;;;4827642;29;20042;-44
2023/05/14 05:14:20;;;;;;;4.10;2.22;;;20.20;1.00;;;;;;4832701;29;20484;-45
2023/05/14 05:16:46;;;;;;;5.47;2.28;;;20.20;1.00;;;;;;4830615;29;20456;-45
2023/05/14 05:19:13;;;;;;;2.83;2.00;;;20.20;1.00;;;;;;4831586;29;20062;-45
2023/05/14 05:21:40;;;;;;;3.67;2.22;;;20.20;1.00;;;;;;4832166;29;20575;-43
2023/05/14 05:24:07;;;;;;;6.10;2.10;;;20.20;1.00;;;;;;4832971;29;20559;-44
2023/05/14 05:26:37;;;;;;;4.70;2.30;;;20.20;1.00;;;;;;4837905;29;20042;-44
2023/05/14 05:29:04;;;;;;;3.28;2.03;;;20.20;1.00;;;;;;4832590;29;20053;-45
2023/05/14 05:31:31;;;;;;;2.83;1.80;;;20.20;1.00;;;;;;4842584;29;20041;-45
2023/05/14 05:33:58;;;;;;;5.40;2.28;;;20.20;1.00;;;;;;4842166;29;20050;-45
2023/05/14 05:36:26;;;;;;;4.07;2.13;;;20.20;1.00;;;;;;4831677;29;20074;-44
2023/05/14 05:39:17;;;;;;;2.60;1.98;;;20.20;1.00;;;;;;4891832;23;20169;31
2023/05/14 05:41:44;;;;;;;5.20;1.73;;;20.20;1.00;;;;;;4798945;29;20055;-44
2023/05/14 05:44:11;;;;;;;3.85;2.03;;;20.20;1.00;;;;;;4803144;29;20042;-44
2023/05/14 05:46:38;;;;;;;2.45;1.85;;;20.20;1.00;;;;;;4799224;29;20054;-43
2023/05/14 05:49:04;;;;;;;2.53;1.60;;;20.20;1.00;;;;;;4799783;29;20054;-44
2023/05/14 05:51:32;;;;;;;5.07;1.65;;;20.10;1.00;;;;;;4797524;29;20078;-44
2023/05/14 05:53:58;;;;;;;2.88;1.83;;;20.10;1.00;;;;;;4804786;29;20047;-44
2023/05/14 05:56:25;;;;;;;3.63;2.17;;;20.10;1.00;;;;;;4803294;29;20047;-44
2023/05/14 05:58:52;;;;;;;5.28;2.78;;;20.10;1.00;;;;;;4798162;29;20055;-44
2023/05/14 06:01:19;;;;;;;5.43;2.33;;;20.10;1.00;;;;;;4804051;29;20489;-43
2023/05/14 06:03:46;;;;;;;2.88;2.40;;;20.10;1.00;;;;;;4797154;29;20440;-44
2023/05/14 06:06:14;;;;;;;5.57;1.92;;;20.10;1.00;;;;;;4794966;29;20054;-46
2023/05/14 06:08:41;;;;;;;4.15;1.85;;;20.10;1.00;;;;;;4791674;29;20055;-43
2023/05/14 06:11:08;;;;;;;6.82;2.10;;;20.10;1.00;;;;;;4858560;24;1072876;-44
2023/05/14 06:13:35;;;;;;;6.60;1.90;;;20.10;1.00;;;;;;4823545;29;20046;-45
2023/05/14 06:16:02;;;;;;;2.40;1.60;;;20.10;1.00;;;;;;4822749;29;20073;-44
2023/05/14 06:18:29;;;;;;;4.57;1.65;;;20.10;1.00;;;;;;4805487;29;20039;-44
2023/05/14 06:20:56;;;;;;;4.88;1.98;;;20.10;1.00;;;;;;4823496;29;20495;-44
2023/05/14 06:23:23;;;;;;;2.72;1.88;;;20.10;1.00;;;;;;4808142;29;20046;-44
2023/05/14 06:25:50;;;;;;;3.95;1.88;;;20.10;1.00;;;;;;4817010;29;20123;-44
2023/05/14 06:28:17;;;;;;;3.45;1.80;;;20.10;1.00;;;;;;4815020;29;20046;-45
2023/05/14 06:30:44;;;;;;;4.32;1.40;;;20.10;1.00;;;;;;4823372;29;20117;-45
2023/05/14 06:33:12;;;;;;;2.95;1.48;;;20.00;1.00;;;;;;4823308;29;20452;-44
2023/05/14 06:35:39;;;;;;;3.45;1.90;;;20.10;1.00;;;;;;4823365;29;20061;-44
2023/05/14 06:38:06;;;;;;;3.33;1.75;;;20.10;1.00;;;;;;4814926;29;20039;-44
2023/05/14 06:40:35;;;;;;;2.53;1.50;;;20.10;1.00;;;;;;4957863;24;20025;31
2023/05/14 06:43:05;;;;;;;2.83;1.55;;;20.00;1.00;;;;;;4812055;29;20267;-44
2023/05/14 06:45:31;;;;;;;6.28;1.67;;;20.10;1.00;;;;;;4819244;29;20057;-46
2023/05/14 06:47:59;;;;;;;2.35;1.85;;;20.10;1.00;;;;;;4819633;29;20083;-44
2023/05/14 06:50:26;;;;;;;3.25;2.20;;;20.10;1.00;;;;;;4821664;29;20046;-45
2023/05/14 06:52:53;;;;;;;4.10;1.83;;;20.10;1.00;;;;;;4816525;29;20489;-44
2023/05/14 06:55:19;;;;;;;4.72;1.95;;;20.10;1.00;;;;;;4806715;29;20054;-44
2023/05/14 06:57:46;;;;;;;3.85;1.63;;;20.10;1.00;;;;;;4822762;29;20580;-44
2023/05/14 07:00:14;;;;;;;3.92;2.25;;;20.10;1.00;;;;;;4813867;29;20073;-44
2023/05/14 07:02:41;;;;;;;5.18;2.67;;;20.10;1.00;;;;;;4812181;29;20081;-44
2023/05/14 07:05:08;;;;;;;2.70;1.83;;;20.10;1.00;;;;;;4812478;29;20047;-45
2023/05/14 07:07:35;;;;;;;3.60;1.60;;;20.10;1.00;;;;;;4815175;29;20125;-45
2023/05/14 07:10:02;;;;;;;2.50;1.48;;;20.10;1.00;;;;;;4814333;29;20039;-44
2023/05/14 07:12:28;;;;;;;4.10;1.85;;;20.10;1.00;;;;;;4808302;29;20495;-45
2023/05/14 07:14:56;;;;;;;3.38;1.95;;;20.10;1.00;;;;;;4809496;29;20096;-45
2023/05/14 07:17:23;;;;;;;3.00;1.73;;;20.10;1.00;;;;;;4814757;29;20074;-45
2023/05/14 07:19:50;;;;;;;4.22;1.48;;;20.10;1.00;;;;;;4822752;29;20583;-44
2023/05/14 07:22:17;;;;;;;5.53;1.63;;;20.10;1.00;;;;;;4814661;29;20126;-44
2023/05/14 07:24:43;;;;;;;2.42;1.38;;;20.10;1.00;;;;;;4821282;29;20057;-47
2023/05/14 07:27:11;;;;;;;2.78;1.73;;;20.10;1.00;;;;;;4822208;29;20526;-45
2023/05/14 07:29:38;;;;;;;2.80;1.90;;;20.10;1.00;;;;;;4814968;29;20042;-45
2023/05/14 07:32:04;;;;;;;5.78;1.98;;;20.10;1.00;;;;;;4807194;29;20050;-45
2023/05/14 07:34:31;;;;;;;3.42;1.85;;;20.10;1.00;;;;;;4811655;29;20103;-45
2023/05/14 07:36:58;;;;;;;2.63;1.58;;;20.10;1.00;;;;;;4818760;29;20456;-44
2023/05/14 07:39:25;;;;;;;2.25;1.25;;;20.10;1.00;;;;;;4814902;29;20065;-45
2023/05/14 07:41:53;;;;;;;5.30;1.92;;;20.10;1.00;;;;;;4818215;29;20051;-45
2023/05/14 07:44:20;;;;;;;2.67;1.55;;;20.10;1.00;;;;;;4816649;29;20510;-45
2023/05/14 07:46:47;;;;;;;2.83;1.58;;;20.10;1.00;;;;;;4811984;29;20104;-44
2023/05/14 07:49:14;;;;;;;3.53;1.27;;;20.10;1.00;;;;;;4834202;29;20058;-43
2023/05/14 07:51:40;;;;;;;4.90;1.58;;;20.10;1.00;;;;;;4822990;29;20461;-44
2023/05/14 07:54:07;;;;;;;1.75;1.48;;;20.10;1.00;;;;;;4821845;29;20095;-44
2023/05/14 07:56:34;;;;;;;2.63;1.42;;;20.10;1.00;;;;;;4803912;29;20057;-44
2023/05/14 07:59:01;;;;;;;2.47;1.50;;;20.20;1.00;;;;;;4818446;29;20042;-43
2023/05/14 08:01:27;;;;;;;5.78;1.40;;;20.20;1.00;;;;;;4814588;29;20385;-43
2023/05/14 08:03:54;;;;;;;5.53;1.58;;;20.20;1.00;;;;;;4822355;29;20388;-45
2023/05/14 08:06:22;;;;;;;2.38;1.83;;;20.20;1.00;;;;;;4814272;29;20078;-44
2023/05/14 08:08:49;;;;;;;3.45;1.45;;;20.20;1.00;;;;;;4814884;29;20089;-44
2023/05/14 08:11:15;;;;;;;4.22;1.63;;;20.20;1.00;;;;;;4822097;29;20106;-43
2023/05/14 08:13:42;;;;;;;3.45;1.33;;;20.20;1.00;;;;;;5072397;23;20073;-45
2023/05/14 08:16:09;;;;;;;3.92;1.58;;;20.20;1.00;;;;;;4834233;29;20078;-45
2023/05/14 08:18:36;;;;;;;4.15;1.20;;;20.20;1.00;;;;;;4840083;29;20046;-46
2023/05/14 08:21:03;;;;;;;2.58;1.10;;;20.20;1.00;;;;;;4840465;29;20045;-44
2023/05/14 08:23:29;;;;;;;5.13;1.55;;;20.20;1.00;;;;;;4840044;29;20398;-46
2023/05/14 08:25:56;;;;;;;1.67;1.27;;;20.20;1.00;;;;;;4832589;29;20555;-44
2023/05/14 08:28:23;;;;;;;3.03;1.40;;;20.20;1.00;;;;;;4840272;29;20045;-45
2023/05/14 08:30:50;;;;;;;5.15;1.40;;;20.20;1.00;;;;;;4840087;29;20038;-45
2023/05/14 08:33:17;;;;;;;4.03;1.30;;;20.20;1.00;;;;;;4832762;29;20080;-44
2023/05/14 08:35:44;;;;;;;3.75;1.83;;;20.20;1.00;;;;;;4837352;29;20046;-44
2023/05/14 08:38:10;;;;;;;6.65;2.15;;;20.20;1.00;;;;;;4835886;29;20050;-45
2023/05/14 08:40:37;;;;;;;3.42;1.45;;;20.20;1.00;;;;;;4843682;29;20467;-45
2023/05/14 08:43:05;;;;;;;3.53;1.45;;;20.20;1.00;;;;;;4843458;29;20260;-44
2023/05/14 08:45:33;;;;;;;3.53;1.52;;;20.20;1.00;;;;;;4886380;23;20086;-44
2023/05/14 08:48:03;;;;;;;3.05;1.17;;;20.20;1.00;;;;;;4835762;29;20137;-45
2023/05/14 08:50:31;;;;;;;5.18;1.17;;;20.20;1.00;;;;;;4840430;29;20125;-45
2023/05/14 08:52:58;;;;;;;4.68;1.30;;;20.30;1.00;;;;;;4824965;29;20526;-44
2023/05/14 08:55:27;;;;;;;4.75;1.30;;;20.30;1.00;;;;;;4831077;29;20039;-43
2023/05/14 08:57:54;;;;;;;3.90;1.35;;;20.30;1.00;;;;;;4841813;29;20050;-44
2023/05/14 09:00:21;;;;;;;1.45;1.02;;;20.30;1.00;;;;;;4828187;29;20038;-44
2023/05/14 09:02:50;;;;;;;2.40;1.70;;;20.30;1.00;;;;;;4837939;29;20461;-43
2023/05/14 09:05:18;;;;;;;2.92;1.20;;;20.30;1.00;;;;;;4840612;29;20056;-45
2023/05/14 09:07:45;;;;;;;3.40;1.30;;;20.30;1.00;;;;;;4835074;29;20068;-44
2023/05/14 09:10:14;;;;;;;5.00;1.23;;;20.30;1.00;;;;;;4835312;29;20046;-44
2023/05/14 09:12:41;;;;;;;1.77;1.40;;;20.30;1.00;;;;;;4838843;29;20050;-46
2023/05/14 09:15:07;;;;;;;3.78;1.55;;;20.30;1.00;;;;;;4831756;29;20234;-44
2023/05/14 09:17:59;;;;;;;2.55;1.15;;;20.30;1.00;;;;;;4901339;23;20053;-44
2023/05/14 09:20:27;;;;;;;2.72;1.30;;;20.30;1.00;;;;;;4842742;29;20072;-44
2023/05/14 09:22:55;;;;;;;4.47;1.30;;;20.30;1.00;;;;;;4837133;29;20138;-43
2023/05/14 09:25:27;;;;;;;3.80;1.40;;;20.30;1.00;;;;;;4833019;29;20066;-45
2023/05/14 09:27:54;;;;;;;2.83;1.50;;;20.30;1.00;;;;;;4834794;29;20053;-42
2023/05/14 09:30:25;;;;;;;1.67;1.30;;;20.30;1.00;;;;;;4840915;29;20045;-43
2023/05/14 09:32:53;;;;;;;4.88;1.85;;;20.40;1.00;;;;;;4831922;29;20499;-42
2023/05/14 09:35:22;;;;;;;3.92;1.60;;;20.30;1.00;;;;;;4830875;29;20042;-43
2023/05/14 09:37:52;;;;;;;4.28;1.55;;;20.30;1.00;;;;;;4842444;29;20046;-43
2023/05/14 09:40:20;;;;;;;3.97;1.80;;;20.30;1.00;;;;;;4842390;29;20042;-43
2023/05/14 09:42:48;;;;;;;3.58;1.45;;;20.40;1.00;;;;;;4842391;29;20038;-44
2023/05/14 09:45:16;;;;;;;2.88;1.70;;;20.40;1.00;;;;;;4832969;29;20130;-44
2023/05/14 09:47:43;;;;;;;4.63;1.55;;;20.40;1.00;;;;;;4942603;23;20106;-43
2023/05/14 09:50:11;;;;;;;3.78;1.83;;;20.40;1.00;;;;;;4831011;29;20046;-43
2023/05/14 09:52:38;;;;;;;5.03;1.65;;;20.40;1.00;;;;;;4836612;29;20499;-44
2023/05/14 09:55:05;;;;;;;7.43;2.15;;;20.40;1.00;;;;;;4842056;29;20461;-45
2023/05/14 09:57:33;;;;;;;3.28;1.80;;;20.50;1.00;;;;;;4833099;29;20459;-43
2023/05/14 10:00:00;;;;;;;2.67;1.83;;;20.50;1.00;;;;;;4828526;29;20039;-43
2023/05/14 10:02:39;;;;;;;2.90;1.48;;;20.50;1.00;;;;;;4838780;29;20093;-45
2023/05/14 10:05:08;;;;;;;3.25;1.33;;;20.50;1.00;;;;;;4826983;29;20583;-43
2023/05/14 10:07:43;;;;;;;4.20;1.45;;;20.50;1.00;;;;;;4841352;29;20044;-43
2023/05/14 10:10:18;;;;;;;2.42;1.38;;;20.50;1.00;;;;;;4827511;29;20051;-43
2023/05/14 10:12:57;;;;;;;4.20;2.15;;;20.50;1.00;;;;;;4827498;29;20153;-43
2023/05/14 10:15:32;;;;;;;4.80;2.22;;;20.50;1.00;;;;;;4840280;29;20079;-44
2023/05/14 10:18:06;;;;;;;2.50;1.70;;;20.60;1.00;;;;;;4837224;29;20042;-44
2023/05/14 10:20:35;;;;;;;3.08;1.90;;;20.60;1.00;;;;;;4826527;29;20058;-44
2023/05/14 10:23:02;;;;;;;4.32;1.70;;;20.60;1.00;;;;;;4841680;29;20046;-48
2023/05/14 10:25:29;;;;;;;4.85;2.13;;;20.60;1.00;;;;;;4824625;29;20085;-47
2023/05/14 10:27:56;;;;;;;2.63;1.60;;;20.60;1.00;;;;;;4830762;29;20062;-43
2023/05/14 10:30:23;;;;;;;2.60;1.80;;;20.60;1.00;;;;;;4831843;29;20046;-43
2023/05/14 10:33:05;;;;;;;4.30;1.70;;;20.60;1.00;;;;;;4834152;29;20045;-44
2023/05/14 10:35:59;;;;;;;4.25;1.58;;;20.60;1.00;;;;;;4840056;29;20072;-47
2023/05/14 10:38:32;;;;;;;2.58;1.92;;;20.60;1.00;;;;;;4833945;29;20521;-45
2023/05/14 10:41:04;;;;;;;2.88;1.63;;;20.60;1.00;;;;;;4828590;29;20095;-45
2023/05/14 10:43:37;;;;;;;5.63;1.80;;;20.70;1.00;;;;;;4832495;29;20050;-43
2023/05/14 10:46:04;;;;;;;3.38;1.85;;;20.70;1.00;;;;;;4833544;29;20053;-45
2023/05/14 10:48:32;;;;;;;4.90;1.48;;;20.70;1.00;;;;;;5205603;24;20089;-47
2023/05/14 10:51:00;;;;;;;3.58;1.67;;;20.70;1.00;;;;;;4830615;29;20057;-44
2023/05/14 10:53:40;;;;;;;4.85;1.48;;;20.70;1.00;;;;;;4829949;29;20057;-45
2023/05/14 10:56:11;;;;;;;2.38;1.45;;;20.70;1.00;;;;;;4836473;29;20448;-47
2023/05/14 10:58:42;;;;;;;2.53;1.40;;;20.70;1.00;;;;;;4830636;29;20069;-48
2023/05/14 11:01:11;;;;;;;4.00;1.63;;;20.70;1.00;;;;;;4830046;29;20037;-43
2023/05/14 11:03:43;;;;;;;5.10;1.40;;;20.70;1.00;;;;;;4833232;29;20069;-48
2023/05/14 11:06:12;;;;;;;1.95;1.30;;;20.70;1.00;;;;;;4840916;29;20042;-46
2023/05/14 11:08:40;;;;;;;2.72;1.13;;;20.70;1.00;;;;;;4838175;29;20038;-44
2023/05/14 11:11:08;;;;;;;3.60;1.30;;;20.70;1.00;;;;;;4836848;29;20037;-47
2023/05/14 11:13:35;;;;;;;3.67;1.73;;;20.70;1.00;;;;;;4833208;29;20038;-47
2023/05/14 11:16:02;;;;;;;5.35;2.95;;;20.80;1.00;;;;;;4827620;29;20046;-44
2023/05/14 11:18:47;;;;;;;3.17;1.58;;;20.70;1.00;;;;;;4834086;29;20061;-44
2023/05/14 11:21:16;;;;;;;6.10;1.90;;;20.80;1.00;;;;;;4900849;23;20115;-44
2023/05/14 11:23:45;;;;;;;4.40;1.50;;;20.80;1.00;;;;;;4809590;29;20056;-47
2023/05/14 11:26:12;;;;;;;4.32;1.50;;;20.80;1.00;;;;;;4822451;29;20110;-45
2023/05/14 11:28:39;;;;;;;2.92;1.27;;;20.80;1.00;;;;;;4822543;29;20042;-47
2023/05/14 11:31:06;;;;;;;2.53;1.70;;;20.70;1.00;;;;;;4822864;29;20047;-49
2023/05/14 11:33:32;;;;;;;2.47;1.55;;;20.80;1.00;;;;;;4812969;29;20039;-45
2023/05/14 11:35:59;;;;;;;2.65;1.52;;;20.80;1.00;;;;;;4817228;29;20100;-46
2023/05/14 11:38:26;;;;;;;5.85;1.70;;;20.80;1.00;;;;;;4815427;29;20047;-47
2023/05/14 11:40:57;;;;;;;4.22;2.03;;;20.80;1.00;;;;;;4808704;29;20059;-46
2023/05/14 11:43:27;;;;;;;6.50;2.38;;;20.80;1.00;;;;;;4814865;29;20046;-48
2023/05/14 11:45:54;;;;;;;2.80;1.83;;;20.80;1.00;;;;;;4815201;29;20043;-47
2023/05/14 11:48:23;;;;;;;2.95;1.30;;;20.80;1.00;;;;;;4822142;29;20047;-48
2023/05/14 11:50:51;;;;;;;2.13;1.33;;;20.80;1.00;;;;;;4883797;23;20032;-46
2023/05/14 11:53:23;;;;;;;2.35;1.67;;;20.80;1.00;;;;;;4832426;29;20046;-45
2023/05/14 11:55:51;;;;;;;3.17;1.48;;;20.80;1.00;;;;;;4810623;29;20453;-45
2023/05/14 11:58:18;;;;;;;5.22;1.60;;;20.80;1.00;;;;;;4822698;29;20038;-44
2023/05/14 12:00:46;;;;;;;4.70;1.60;;;20.80;1.00;;;;;;4812281;29;20070;-45
2023/05/14 12:03:13;;;;;;;2.20;1.60;;;20.80;1.00;;;;;;4804366;29;20042;-47
2023/05/14 12:05:40;;;;;;;3.78;1.75;;;20.80;1.00;;;;;;4811544;29;20138;-45
2023/05/14 12:08:28;;;;;;;3.78;1.60;;;20.80;1.00;;;;;;4818812;29;20061;-45
2023/05/14 12:10:57;;;;;;;2.10;1.75;;;20.80;1.00;;;;;;4815521;29;20039;-45
2023/05/14 12:13:29;;;;;;;3.97;1.77;;;20.80;1.00;;;;;;4822410;29;20038;-47
2023/05/14 12:15:59;;;;;;;4.90;1.67;;;20.80;1.00;;;;;;4819511;29;20400;-45
2023/05/14 12:18:30;;;;;;;3.83;1.30;;;20.80;1.00;;;;;;4825507;29;20046;-49
2023/05/14 12:21:02;;;;;;;5.10;1.73;;;20.80;1.00;;;;;;4825943;29;20050;-44
2023/05/14 12:23:30;;;;;;;2.67;1.55;;;20.80;1.00;;;;;;4815462;29;20388;-47
2023/05/14 12:26:03;;;;;;;5.00;1.58;;;20.90;1.00;;;;;;4817037;29;20484;-44
2023/05/14 12:28:29;;;;;;;4.63;1.55;;;20.80;1.00;;;;;;4807527;29;20043;-44
2023/05/14 12:30:57;;;;;;;2.50;1.55;;;20.90;1.00;;;;;;4815001;29;20153;-44
2023/05/14 12:33:27;;;;;;;3.50;1.80;;;20.90;1.00;;;;;;4822448;29;20049;-44
2023/05/14 12:36:00;;;;;;;4.35;1.50;;;20.90;1.00;;;;;;4825250;29;20870;-46
2023/05/14 12:38:36;;;;;;;5.25;1.45;;;20.90;1.00;;;;;;4816014;29;20042;-44
2023/05/14 12:41:03;;;;;;;3.72;1.95;;;20.90;1.00;;;;;;4820139;29;20049;-45
2023/05/14 12:43:31;;;;;;;3.72;1.40;;;20.90;1.00;;;;;;4816564;29;20443;-44
2023/05/14 12:45:57;;;;;;;2.88;2.13;;;20.80;1.00;;;;;;4818742;29;20042;-44
2023/05/14 12:48:24;;;;;;;3.15;1.90;;;20.90;1.00;;;;;;4817480;29;20526;-44
2023/05/14 12:50:51;;;;;;;4.55;1.45;;;20.90;1.00;;;;;;4816627;29;20038;-44
2023/05/14 12:53:18;;;;;;;3.40;1.48;;;20.90;1.00;;;;;;4818892;29;20046;-44
2023/05/14 12:55:45;;;;;;;2.40;1.50;;;20.90;1.00;;;;;;4813872;29;20070;-45
2023/05/14 12:58:12;;;;;;;2.90;1.58;;;20.90;1.00;;;;;;4825019;29;20043;-45
2023/05/14 13:00:38;;;;;;;3.72;2.00;;;20.90;1.00;;;;;;4817480;29;20042;-48
2023/05/14 13:03:05;;;;;;;2.28;1.35;;;20.90;1.00;;;;;;4825163;29;20053;-46